sensor_id;sensor_type;location;lat;lon;timestamp;P1;durP1;ratioP1;P2;durP2;ratioP2
7817;SDS011;3954;52.624;9.212;2023-08-07T00:02:20;5.40;;;4.90;;
7817;SDS011;3954;52.624;9.212;2023-08-07T00:04:46;5.77;;;4.40;;
7817;SDS011;3954;52.624;9.212;2023-08-07T00:07:13;5.90;;;4.80;;
7817;SDS011;3954;52.624;9.212;2023-08-07T00:09:39;8.93;;;8.10;;
7817;SDS011;3954;52.624;9.212;2023-08-07T00:12:05;7.47;;;6.77;;
7817;SDS011;3954;52.624;9.212;2023-08-07T00:14:31;6.13;;;5.13;;
7817;SDS011;3954;52.624;9.212;2023-08-07T00:16:57;7.40;;;4.80;;
7817;SDS011;3954;52.624;9.212;2023-08-07T00:19:23;6.37;;;5.03;;
7817;SDS011;3954;52.624;9.212;2023-08-07T00:21:49;7.33;;;4.87;;
7817;SDS011;3954;52.624;9.212;2023-08-07T00:24:16;6.77;;;5.20;;
7817;SDS011;3954;52.624;9.212;2023-08-07T00:26:42;4.67;;;4.27;;
7817;SDS011;3954;52.624;9.212;2023-08-07T00:29:08;5.53;;;4.50;;
7817;SDS011;3954;52.624;9.212;2023-08-07T00:31:35;6.03;;;4.67;;
7817;SDS011;3954;52.624;9.212;2023-08-07T00:34:01;5.20;;;4.20;;
7817;SDS011;3954;52.624;9.212;2023-08-07T00:36:29;5.23;;;4.57;;
7817;SDS011;3954;52.624;9.212;2023-08-07T00:38:56;5.67;;;4.97;;
7817;SDS011;3954;52.624;9.212;2023-08-07T00:41:23;4.80;;;4.40;;
7817;SDS011;3954;52.624;9.212;2023-08-07T00:43:49;6.20;;;4.20;;
7817;SDS011;3954;52.624;9.212;2023-08-07T00:46:15;5.13;;;4.60;;
7817;SDS011;3954;52.624;9.212;2023-08-07T00:48:41;4.60;;;4.20;;
7817;SDS011;3954;52.624;9.212;2023-08-07T00:51:07;5.40;;;4.47;;
7817;SDS011;3954;52.624;9.212;2023-08-07T00:53:36;5.60;;;4.57;;
7817;SDS011;3954;52.624;9.212;2023-08-07T00:56:03;5.73;;;4.87;;
7817;SDS011;3954;52.624;9.212;2023-08-07T00:58:30;5.57;;;4.40;;
7817;SDS011;3954;52.624;9.212;2023-08-07T01:00:56;6.73;;;4.37;;
7817;SDS011;3954;52.624;9.212;2023-08-07T01:03:22;7.20;;;5.50;;
7817;SDS011;3954;52.624;9.212;2023-08-07T01:05:49;6.37;;;5.50;;
7817;SDS011;3954;52.624;9.212;2023-08-07T01:08:15;6.73;;;5.27;;
7817;SDS011;3954;52.624;9.212;2023-08-07T01:10:45;5.93;;;5.27;;
7817;SDS011;3954;52.624;9.212;2023-08-07T01:13:18;5.23;;;4.83;;
7817;SDS011;3954;52.624;9.212;2023-08-07T01:15:48;6.33;;;5.47;;
7817;SDS011;3954;52.624;9.212;2023-08-07T01:18:15;5.00;;;4.50;;
7817;SDS011;3954;52.624;9.212;2023-08-07T01:20:42;8.73;;;7.83;;
7817;SDS011;3954;52.624;9.212;2023-08-07T01:23:09;7.57;;;5.00;;
7817;SDS011;3954;52.624;9.212;2023-08-07T01:25:35;7.50;;;4.90;;
7817;SDS011;3954;52.624;9.212;2023-08-07T01:28:06;5.40;;;4.57;;
7817;SDS011;3954;52.624;9.212;2023-08-07T01:30:33;5.73;;;5.23;;
7817;SDS011;3954;52.624;9.212;2023-08-07T01:33:04;5.63;;;5.13;;
7817;SDS011;3954;52.624;9.212;2023-08-07T01:35:32;5.57;;;4.87;;
7817;SDS011;3954;52.624;9.212;2023-08-07T01:37:59;6.23;;;5.63;;
7817;SDS011;3954;52.624;9.212;2023-08-07T01:40:27;5.40;;;4.80;;
7817;SDS011;3954;52.624;9.212;2023-08-07T01:42:53;5.77;;;5.20;;
7817;SDS011;3954;52.624;9.212;2023-08-07T01:45:22;5.63;;;5.10;;
7817;SDS011;3954;52.624;9.212;2023-08-07T01:47:49;5.93;;;5.43;;
7817;SDS011;3954;52.624;9.212;2023-08-07T01:50:15;5.33;;;4.73;;
7817;SDS011;3954;52.624;9.212;2023-08-07T01:52:41;5.53;;;4.80;;
7817;SDS011;3954;52.624;9.212;2023-08-07T01:55:07;6.03;;;5.43;;
7817;SDS011;3954;52.624;9.212;2023-08-07T01:57:34;5.73;;;5.03;;
7817;SDS011;3954;52.624;9.212;2023-08-07T02:00:00;4.93;;;4.53;;
7817;SDS011;3954;52.624;9.212;2023-08-07T02:02:28;5.77;;;4.73;;
7817;SDS011;3954;52.624;9.212;2023-08-07T02:04:54;6.17;;;5.57;;
7817;SDS011;3954;52.624;9.212;2023-08-07T02:07:20;9.33;;;5.87;;
7817;SDS011;3954;52.624;9.212;2023-08-07T02:09:46;12.30;;;9.83;;
7817;SDS011;3954;52.624;9.212;2023-08-07T02:12:12;9.00;;;6.70;;
7817;SDS011;3954;52.624;9.212;2023-08-07T02:14:40;6.77;;;6.07;;
7817;SDS011;3954;52.624;9.212;2023-08-07T02:17:06;7.67;;;6.70;;
7817;SDS011;3954;52.624;9.212;2023-08-07T02:19:32;7.00;;;6.40;;
7817;SDS011;3954;52.624;9.212;2023-08-07T02:21:58;8.47;;;7.60;;
7817;SDS011;3954;52.624;9.212;2023-08-07T02:24:24;8.30;;;7.50;;
7817;SDS011;3954;52.624;9.212;2023-08-07T02:26:50;8.03;;;7.23;;
7817;SDS011;3954;52.624;9.212;2023-08-07T02:29:16;7.40;;;6.70;;
7817;SDS011;3954;52.624;9.212;2023-08-07T02:31:43;7.37;;;6.67;;
7817;SDS011;3954;52.624;9.212;2023-08-07T02:34:09;10.93;;;7.07;;
7817;SDS011;3954;52.624;9.212;2023-08-07T02:36:35;8.23;;;6.93;;
7817;SDS011;3954;52.624;9.212;2023-08-07T02:39:01;6.80;;;6.20;;
7817;SDS011;3954;52.624;9.212;2023-08-07T02:41:28;6.47;;;5.87;;
7817;SDS011;3954;52.624;9.212;2023-08-07T02:43:54;5.80;;;5.20;;
7817;SDS011;3954;52.624;9.212;2023-08-07T02:46:20;7.40;;;5.60;;
7817;SDS011;3954;52.624;9.212;2023-08-07T02:48:47;5.77;;;5.27;;
7817;SDS011;3954;52.624;9.212;2023-08-07T02:51:13;9.07;;;6.23;;
7817;SDS011;3954;52.624;9.212;2023-08-07T02:53:39;6.13;;;5.50;;
7817;SDS011;3954;52.624;9.212;2023-08-07T02:56:05;10.73;;;6.23;;
7817;SDS011;3954;52.624;9.212;2023-08-07T02:58:31;8.13;;;6.00;;
7817;SDS011;3954;52.624;9.212;2023-08-07T03:01:02;6.37;;;5.80;;
7817;SDS011;3954;52.624;9.212;2023-08-07T03:03:28;6.23;;;5.60;;
7817;SDS011;3954;52.624;9.212;2023-08-07T03:05:56;5.97;;;5.37;;
7817;SDS011;3954;52.624;9.212;2023-08-07T03:08:22;7.53;;;6.03;;
7817;SDS011;3954;52.624;9.212;2023-08-07T03:10:51;11.13;;;6.70;;
7817;SDS011;3954;52.624;9.212;2023-08-07T03:13:17;7.40;;;5.77;;
7817;SDS011;3954;52.624;9.212;2023-08-07T03:15:43;8.37;;;5.70;;
7817;SDS011;3954;52.624;9.212;2023-08-07T03:18:09;6.80;;;6.03;;
7817;SDS011;3954;52.624;9.212;2023-08-07T03:20:36;6.47;;;5.90;;
7817;SDS011;3954;52.624;9.212;2023-08-07T03:23:03;6.77;;;5.93;;
7817;SDS011;3954;52.624;9.212;2023-08-07T03:25:29;8.07;;;5.50;;
7817;SDS011;3954;52.624;9.212;2023-08-07T03:27:55;6.40;;;5.73;;
7817;SDS011;3954;52.624;9.212;2023-08-07T03:30:21;6.07;;;5.53;;
7817;SDS011;3954;52.624;9.212;2023-08-07T03:32:47;7.10;;;5.97;;
7817;SDS011;3954;52.624;9.212;2023-08-07T03:35:15;6.73;;;6.03;;
7817;SDS011;3954;52.624;9.212;2023-08-07T03:37:41;8.73;;;6.23;;
7817;SDS011;3954;52.624;9.212;2023-08-07T03:40:09;6.87;;;6.20;;
7817;SDS011;3954;52.624;9.212;2023-08-07T03:42:35;7.37;;;6.30;;
7817;SDS011;3954;52.624;9.212;2023-08-07T03:45:01;7.57;;;6.30;;
7817;SDS011;3954;52.624;9.212;2023-08-07T03:47:27;9.30;;;6.83;;
7817;SDS011;3954;52.624;9.212;2023-08-07T03:49:53;7.43;;;6.03;;
7817;SDS011;3954;52.624;9.212;2023-08-07T03:52:19;7.00;;;5.80;;
7817;SDS011;3954;52.624;9.212;2023-08-07T03:54:45;6.93;;;6.13;;
7817;SDS011;3954;52.624;9.212;2023-08-07T03:57:13;7.07;;;6.13;;
7817;SDS011;3954;52.624;9.212;2023-08-07T03:59:39;7.27;;;6.60;;
7817;SDS011;3954;52.624;9.212;2023-08-07T04:02:05;7.30;;;6.53;;
7817;SDS011;3954;52.624;9.212;2023-08-07T04:04:31;7.30;;;6.60;;
7817;SDS011;3954;52.624;9.212;2023-08-07T04:06:57;8.80;;;6.13;;
7817;SDS011;3954;52.624;9.212;2023-08-07T04:09:23;7.47;;;6.40;;
7817;SDS011;3954;52.624;9.212;2023-08-07T04:11:49;7.20;;;6.50;;
7817;SDS011;3954;52.624;9.212;2023-08-07T04:14:16;7.13;;;6.37;;
7817;SDS011;3954;52.624;9.212;2023-08-07T04:16:42;6.80;;;6.07;;
7817;SDS011;3954;52.624;9.212;2023-08-07T04:19:08;7.20;;;6.50;;
7817;SDS011;3954;52.624;9.212;2023-08-07T04:21:34;6.73;;;5.93;;
7817;SDS011;3954;52.624;9.212;2023-08-07T04:24:00;7.97;;;7.03;;
7817;SDS011;3954;52.624;9.212;2023-08-07T04:26:33;7.30;;;6.60;;
7817;SDS011;3954;52.624;9.212;2023-08-07T04:28:59;8.93;;;6.93;;
7817;SDS011;3954;52.624;9.212;2023-08-07T04:31:26;8.27;;;6.30;;
7817;SDS011;3954;52.624;9.212;2023-08-07T04:33:52;6.93;;;6.27;;
7817;SDS011;3954;52.624;9.212;2023-08-07T04:36:18;7.00;;;6.27;;
7817;SDS011;3954;52.624;9.212;2023-08-07T04:38:46;13.77;;;6.23;;
7817;SDS011;3954;52.624;9.212;2023-08-07T04:41:12;7.77;;;6.23;;
7817;SDS011;3954;52.624;9.212;2023-08-07T04:43:38;7.90;;;6.27;;
7817;SDS011;3954;52.624;9.212;2023-08-07T04:46:04;6.93;;;6.23;;
7817;SDS011;3954;52.624;9.212;2023-08-07T04:48:31;12.90;;;7.13;;
7817;SDS011;3954;52.624;9.212;2023-08-07T04:50:58;8.40;;;6.83;;
7817;SDS011;3954;52.624;9.212;2023-08-07T04:53:24;6.93;;;6.23;;
7817;SDS011;3954;52.624;9.212;2023-08-07T04:55:50;7.53;;;5.00;;
7817;SDS011;3954;52.624;9.212;2023-08-07T04:58:16;7.07;;;5.80;;
7817;SDS011;3954;52.624;9.212;2023-08-07T05:00:42;5.77;;;5.27;;
7817;SDS011;3954;52.624;9.212;2023-08-07T05:03:08;5.90;;;5.40;;
7817;SDS011;3954;52.624;9.212;2023-08-07T05:05:35;6.17;;;5.33;;
7817;SDS011;3954;52.624;9.212;2023-08-07T05:08:01;5.60;;;5.10;;
7817;SDS011;3954;52.624;9.212;2023-08-07T05:10:27;6.97;;;5.73;;
7817;SDS011;3954;52.624;9.212;2023-08-07T05:12:54;8.07;;;5.27;;
7817;SDS011;3954;52.624;9.212;2023-08-07T05:15:23;6.83;;;4.70;;
7817;SDS011;3954;52.624;9.212;2023-08-07T05:17:49;6.03;;;4.80;;
7817;SDS011;3954;52.624;9.212;2023-08-07T05:20:15;5.50;;;5.00;;
7817;SDS011;3954;52.624;9.212;2023-08-07T05:22:43;5.63;;;5.00;;
7817;SDS011;3954;52.624;9.212;2023-08-07T05:25:09;4.77;;;4.33;;
7817;SDS011;3954;52.624;9.212;2023-08-07T05:27:37;5.23;;;4.40;;
7817;SDS011;3954;52.624;9.212;2023-08-07T05:30:04;5.70;;;4.40;;
7817;SDS011;3954;52.624;9.212;2023-08-07T05:32:30;5.07;;;4.57;;
7817;SDS011;3954;52.624;9.212;2023-08-07T05:34:57;4.67;;;4.27;;
7817;SDS011;3954;52.624;9.212;2023-08-07T05:37:23;6.37;;;4.17;;
7817;SDS011;3954;52.624;9.212;2023-08-07T05:39:51;5.33;;;4.37;;
7817;SDS011;3954;52.624;9.212;2023-08-07T05:42:17;6.00;;;4.37;;
7817;SDS011;3954;52.624;9.212;2023-08-07T05:44:43;5.07;;;4.27;;
7817;SDS011;3954;52.624;9.212;2023-08-07T05:47:09;5.67;;;4.53;;
7817;SDS011;3954;52.624;9.212;2023-08-07T05:49:35;8.17;;;4.00;;
7817;SDS011;3954;52.624;9.212;2023-08-07T05:52:01;3.97;;;3.50;;
7817;SDS011;3954;52.624;9.212;2023-08-07T05:54:27;4.73;;;3.90;;
7817;SDS011;3954;52.624;9.212;2023-08-07T05:56:55;4.40;;;4.00;;
7817;SDS011;3954;52.624;9.212;2023-08-07T05:59:21;7.27;;;3.80;;
7817;SDS011;3954;52.624;9.212;2023-08-07T06:01:47;4.70;;;3.80;;
7817;SDS011;3954;52.624;9.212;2023-08-07T06:04:13;3.60;;;3.30;;
7817;SDS011;3954;52.624;9.212;2023-08-07T06:06:39;4.00;;;3.30;;
7817;SDS011;3954;52.624;9.212;2023-08-07T06:09:05;4.30;;;3.80;;
7817;SDS011;3954;52.624;9.212;2023-08-07T06:11:32;3.90;;;3.20;;
7817;SDS011;3954;52.624;9.212;2023-08-07T06:13:59;4.67;;;3.40;;
7817;SDS011;3954;52.624;9.212;2023-08-07T06:16:25;5.87;;;3.40;;
7817;SDS011;3954;52.624;9.212;2023-08-07T06:18:52;5.73;;;3.47;;
7817;SDS011;3954;52.624;9.212;2023-08-07T06:21:18;4.33;;;3.60;;
7817;SDS011;3954;52.624;9.212;2023-08-07T06:23:45;3.90;;;3.37;;
7817;SDS011;3954;52.624;9.212;2023-08-07T06:26:11;3.77;;;3.30;;
7817;SDS011;3954;52.624;9.212;2023-08-07T06:28:37;4.13;;;3.30;;
7817;SDS011;3954;52.624;9.212;2023-08-07T06:31:05;3.77;;;3.03;;
7817;SDS011;3954;52.624;9.212;2023-08-07T06:33:32;4.13;;;2.80;;
7817;SDS011;3954;52.624;9.212;2023-08-07T06:35:58;4.93;;;3.30;;
7817;SDS011;3954;52.624;9.212;2023-08-07T06:38:24;4.90;;;3.00;;
7817;SDS011;3954;52.624;9.212;2023-08-07T06:40:50;4.10;;;3.20;;
7817;SDS011;3954;52.624;9.212;2023-08-07T06:43:16;4.70;;;3.17;;
7817;SDS011;3954;52.624;9.212;2023-08-07T06:45:43;2.90;;;2.60;;
7817;SDS011;3954;52.624;9.212;2023-08-07T06:48:10;5.13;;;3.10;;
7817;SDS011;3954;52.624;9.212;2023-08-07T06:50:36;4.23;;;3.00;;
7817;SDS011;3954;52.624;9.212;2023-08-07T06:53:02;5.13;;;3.00;;
7817;SDS011;3954;52.624;9.212;2023-08-07T06:55:28;5.47;;;2.97;;
7817;SDS011;3954;52.624;9.212;2023-08-07T06:57:54;4.37;;;3.17;;
7817;SDS011;3954;52.624;9.212;2023-08-07T07:00:20;3.40;;;2.70;;
7817;SDS011;3954;52.624;9.212;2023-08-07T07:02:46;3.93;;;2.57;;
7817;SDS011;3954;52.624;9.212;2023-08-07T07:05:14;4.70;;;2.30;;
7817;SDS011;3954;52.624;9.212;2023-08-07T07:07:40;3.83;;;2.67;;
7817;SDS011;3954;52.624;9.212;2023-08-07T07:10:07;3.00;;;2.60;;
7817;SDS011;3954;52.624;9.212;2023-08-07T07:12:33;4.87;;;2.30;;
7817;SDS011;3954;52.624;9.212;2023-08-07T07:14:59;5.17;;;2.50;;
7817;SDS011;3954;52.624;9.212;2023-08-07T07:17:25;3.73;;;2.07;;
7817;SDS011;3954;52.624;9.212;2023-08-07T07:19:51;4.87;;;2.13;;
7817;SDS011;3954;52.624;9.212;2023-08-07T07:22:18;2.87;;;2.00;;
7817;SDS011;3954;52.624;9.212;2023-08-07T07:24:44;3.87;;;2.23;;
7817;SDS011;3954;52.624;9.212;2023-08-07T07:27:10;4.00;;;2.10;;
7817;SDS011;3954;52.624;9.212;2023-08-07T07:29:36;3.43;;;1.97;;
7817;SDS011;3954;52.624;9.212;2023-08-07T07:32:03;4.50;;;2.20;;
7817;SDS011;3954;52.624;9.212;2023-08-07T07:34:29;4.33;;;2.10;;
7817;SDS011;3954;52.624;9.212;2023-08-07T07:36:55;4.70;;;1.97;;
7817;SDS011;3954;52.624;9.212;2023-08-07T07:39:22;5.20;;;2.10;;
7817;SDS011;3954;52.624;9.212;2023-08-07T07:41:48;4.97;;;1.83;;
7817;SDS011;3954;52.624;9.212;2023-08-07T07:44:14;5.60;;;2.10;;
7817;SDS011;3954;52.624;9.212;2023-08-07T07:46:40;3.70;;;2.10;;
7817;SDS011;3954;52.624;9.212;2023-08-07T07:49:06;3.90;;;2.17;;
7817;SDS011;3954;52.624;9.212;2023-08-07T07:51:32;3.90;;;2.07;;
7817;SDS011;3954;52.624;9.212;2023-08-07T07:54:00;3.67;;;2.03;;
7817;SDS011;3954;52.624;9.212;2023-08-07T07:56:27;3.57;;;2.07;;
7817;SDS011;3954;52.624;9.212;2023-08-07T07:58:53;3.97;;;1.93;;
7817;SDS011;3954;52.624;9.212;2023-08-07T08:01:19;3.07;;;2.00;;
7817;SDS011;3954;52.624;9.212;2023-08-07T08:03:45;6.83;;;2.30;;
7817;SDS011;3954;52.624;9.212;2023-08-07T08:06:11;4.07;;;2.37;;
7817;SDS011;3954;52.624;9.212;2023-08-07T08:08:38;2.77;;;2.07;;
7817;SDS011;3954;52.624;9.212;2023-08-07T08:11:04;5.30;;;2.20;;
7817;SDS011;3954;52.624;9.212;2023-08-07T08:13:32;3.60;;;2.27;;
7817;SDS011;3954;52.624;9.212;2023-08-07T08:15:58;6.07;;;2.47;;
7817;SDS011;3954;52.624;9.212;2023-08-07T08:18:24;5.33;;;2.50;;
7817;SDS011;3954;52.624;9.212;2023-08-07T08:20:51;5.60;;;2.57;;
7817;SDS011;3954;52.624;9.212;2023-08-07T08:23:17;5.07;;;2.50;;
7817;SDS011;3954;52.624;9.212;2023-08-07T08:25:43;6.50;;;2.60;;
7817;SDS011;3954;52.624;9.212;2023-08-07T08:28:09;3.30;;;2.30;;
7817;SDS011;3954;52.624;9.212;2023-08-07T08:30:36;5.27;;;2.30;;
7817;SDS011;3954;52.624;9.212;2023-08-07T08:33:02;5.80;;;2.50;;
7817;SDS011;3954;52.624;9.212;2023-08-07T08:35:30;3.67;;;2.37;;
7817;SDS011;3954;52.624;9.212;2023-08-07T08:37:56;3.53;;;2.20;;
7817;SDS011;3954;52.624;9.212;2023-08-07T08:40:22;5.47;;;2.50;;
7817;SDS011;3954;52.624;9.212;2023-08-07T08:42:49;6.07;;;2.50;;
7817;SDS011;3954;52.624;9.212;2023-08-07T08:45:18;5.17;;;2.20;;
7817;SDS011;3954;52.624;9.212;2023-08-07T08:47:46;7.23;;;2.63;;
7817;SDS011;3954;52.624;9.212;2023-08-07T08:50:13;5.93;;;2.60;;
7817;SDS011;3954;52.624;9.212;2023-08-07T08:52:41;4.13;;;2.17;;
7817;SDS011;3954;52.624;9.212;2023-08-07T08:55:07;5.13;;;2.10;;
7817;SDS011;3954;52.624;9.212;2023-08-07T08:57:33;5.27;;;2.43;;
7817;SDS011;3954;52.624;9.212;2023-08-07T09:00:00;11.00;;;8.10;;
7817;SDS011;3954;52.624;9.212;2023-08-07T09:02:31;8.03;;;3.00;;
7817;SDS011;3954;52.624;9.212;2023-08-07T09:04:59;5.13;;;2.53;;
7817;SDS011;3954;52.624;9.212;2023-08-07T09:07:25;4.97;;;2.50;;
7817;SDS011;3954;52.624;9.212;2023-08-07T09:09:52;6.43;;;2.53;;
7817;SDS011;3954;52.624;9.212;2023-08-07T09:12:19;5.23;;;2.50;;
7817;SDS011;3954;52.624;9.212;2023-08-07T09:14:46;3.33;;;2.40;;
7817;SDS011;3954;52.624;9.212;2023-08-07T09:17:15;6.70;;;2.90;;
7817;SDS011;3954;52.624;9.212;2023-08-07T09:19:41;9.00;;;2.87;;
7817;SDS011;3954;52.624;9.212;2023-08-07T09:22:09;5.80;;;2.60;;
7817;SDS011;3954;52.624;9.212;2023-08-07T09:24:35;6.37;;;2.90;;
7817;SDS011;3954;52.624;9.212;2023-08-07T09:27:01;6.63;;;2.70;;
7817;SDS011;3954;52.624;9.212;2023-08-07T09:29:27;4.53;;;2.10;;
7817;SDS011;3954;52.624;9.212;2023-08-07T09:31:54;6.00;;;2.27;;
7817;SDS011;3954;52.624;9.212;2023-08-07T09:34:20;7.03;;;3.10;;
7817;SDS011;3954;52.624;9.212;2023-08-07T09:36:46;4.50;;;2.60;;
7817;SDS011;3954;52.624;9.212;2023-08-07T09:39:13;5.40;;;2.27;;
7817;SDS011;3954;52.624;9.212;2023-08-07T09:41:39;6.23;;;2.27;;
7817;SDS011;3954;52.624;9.212;2023-08-07T09:44:06;6.53;;;2.27;;
7817;SDS011;3954;52.624;9.212;2023-08-07T09:46:40;6.80;;;2.30;;
7817;SDS011;3954;52.624;9.212;2023-08-07T09:49:06;6.87;;;2.37;;
7817;SDS011;3954;52.624;9.212;2023-08-07T09:51:36;8.53;;;2.57;;
7817;SDS011;3954;52.624;9.212;2023-08-07T09:54:07;3.90;;;2.10;;
7817;SDS011;3954;52.624;9.212;2023-08-07T09:56:34;5.03;;;2.13;;
7817;SDS011;3954;52.624;9.212;2023-08-07T09:59:00;4.60;;;2.23;;
7817;SDS011;3954;52.624;9.212;2023-08-07T10:01:26;4.93;;;2.10;;
7817;SDS011;3954;52.624;9.212;2023-08-07T10:03:52;4.43;;;2.10;;
7817;SDS011;3954;52.624;9.212;2023-08-07T10:06:18;6.03;;;2.03;;
7817;SDS011;3954;52.624;9.212;2023-08-07T10:08:45;6.03;;;2.43;;
7817;SDS011;3954;52.624;9.212;2023-08-07T10:11:12;4.80;;;2.27;;
7817;SDS011;3954;52.624;9.212;2023-08-07T10:13:40;5.63;;;2.23;;
7817;SDS011;3954;52.624;9.212;2023-08-07T10:16:06;5.60;;;2.23;;
7817;SDS011;3954;52.624;9.212;2023-08-07T10:18:33;4.30;;;2.03;;
7817;SDS011;3954;52.624;9.212;2023-08-07T10:20:59;5.93;;;2.50;;
7817;SDS011;3954;52.624;9.212;2023-08-07T10:23:26;5.30;;;2.50;;
7817;SDS011;3954;52.624;9.212;2023-08-07T10:25:52;4.87;;;2.40;;
7817;SDS011;3954;52.624;9.212;2023-08-07T10:28:19;6.27;;;2.50;;
7817;SDS011;3954;52.624;9.212;2023-08-07T10:30:47;4.07;;;1.93;;
7817;SDS011;3954;52.624;9.212;2023-08-07T10:33:13;5.13;;;2.27;;
7817;SDS011;3954;52.624;9.212;2023-08-07T10:35:44;6.10;;;2.90;;
7817;SDS011;3954;52.624;9.212;2023-08-07T10:38:11;7.90;;;2.43;;
7817;SDS011;3954;52.624;9.212;2023-08-07T10:43:18;4.47;;;2.17;;
7817;SDS011;3954;52.624;9.212;2023-08-07T10:45:44;6.60;;;2.20;;
7817;SDS011;3954;52.624;9.212;2023-08-07T10:48:11;4.67;;;2.23;;
7817;SDS011;3954;52.624;9.212;2023-08-07T10:50:48;4.97;;;2.20;;
7817;SDS011;3954;52.624;9.212;2023-08-07T10:53:18;9.00;;;2.93;;
7817;SDS011;3954;52.624;9.212;2023-08-07T10:55:45;5.60;;;2.67;;
7817;SDS011;3954;52.624;9.212;2023-08-07T10:58:22;6.30;;;2.43;;
7817;SDS011;3954;52.624;9.212;2023-08-07T11:00:48;4.40;;;2.20;;
7817;SDS011;3954;52.624;9.212;2023-08-07T11:03:20;5.70;;;1.63;;
7817;SDS011;3954;52.624;9.212;2023-08-07T11:05:51;2.97;;;1.43;;
7817;SDS011;3954;52.624;9.212;2023-08-07T11:08:21;3.17;;;1.70;;
7817;SDS011;3954;52.624;9.212;2023-08-07T11:10:47;3.17;;;1.70;;
7817;SDS011;3954;52.624;9.212;2023-08-07T11:13:13;3.77;;;1.60;;
7817;SDS011;3954;52.624;9.212;2023-08-07T11:15:39;3.60;;;1.80;;
7817;SDS011;3954;52.624;9.212;2023-08-07T11:18:05;4.90;;;1.93;;
7817;SDS011;3954;52.624;9.212;2023-08-07T11:20:32;3.63;;;1.80;;
7817;SDS011;3954;52.624;9.212;2023-08-07T11:22:58;3.00;;;1.80;;
7817;SDS011;3954;52.624;9.212;2023-08-07T11:25:24;4.43;;;1.80;;
7817;SDS011;3954;52.624;9.212;2023-08-07T11:27:51;4.37;;;1.90;;
7817;SDS011;3954;52.624;9.212;2023-08-07T11:30:17;7.07;;;2.27;;
7817;SDS011;3954;52.624;9.212;2023-08-07T11:32:44;4.17;;;1.83;;
7817;SDS011;3954;52.624;9.212;2023-08-07T11:35:10;5.73;;;1.80;;
7817;SDS011;3954;52.624;9.212;2023-08-07T11:37:38;6.57;;;1.73;;
7817;SDS011;3954;52.624;9.212;2023-08-07T11:40:11;2.73;;;1.80;;
7817;SDS011;3954;52.624;9.212;2023-08-07T11:42:37;3.10;;;1.90;;
7817;SDS011;3954;52.624;9.212;2023-08-07T11:45:03;4.33;;;2.13;;
7817;SDS011;3954;52.624;9.212;2023-08-07T11:47:29;3.23;;;1.90;;
7817;SDS011;3954;52.624;9.212;2023-08-07T11:49:55;3.23;;;1.83;;
7817;SDS011;3954;52.624;9.212;2023-08-07T11:52:21;3.20;;;1.70;;
7817;SDS011;3954;52.624;9.212;2023-08-07T11:54:50;6.30;;;1.90;;
7817;SDS011;3954;52.624;9.212;2023-08-07T11:57:19;2.90;;;1.80;;
7817;SDS011;3954;52.624;9.212;2023-08-07T11:59:49;4.60;;;3.17;;
7817;SDS011;3954;52.624;9.212;2023-08-07T12:02:15;2.80;;;1.80;;
7817;SDS011;3954;52.624;9.212;2023-08-07T12:04:41;3.30;;;1.60;;
7817;SDS011;3954;52.624;9.212;2023-08-07T12:07:08;2.40;;;1.73;;
7817;SDS011;3954;52.624;9.212;2023-08-07T12:09:36;2.40;;;1.60;;
7817;SDS011;3954;52.624;9.212;2023-08-07T12:12:05;3.97;;;2.20;;
7817;SDS011;3954;52.624;9.212;2023-08-07T12:14:31;4.90;;;2.63;;
7817;SDS011;3954;52.624;9.212;2023-08-07T12:16:57;6.50;;;2.37;;
7817;SDS011;3954;52.624;9.212;2023-08-07T12:19:23;7.37;;;2.40;;
7817;SDS011;3954;52.624;9.212;2023-08-07T12:21:49;8.07;;;2.57;;
7817;SDS011;3954;52.624;9.212;2023-08-07T12:24:15;3.07;;;1.77;;
7817;SDS011;3954;52.624;9.212;2023-08-07T12:26:41;6.00;;;2.40;;
7817;SDS011;3954;52.624;9.212;2023-08-07T12:29:08;5.70;;;2.23;;
7817;SDS011;3954;52.624;9.212;2023-08-07T12:31:34;5.30;;;2.07;;
7817;SDS011;3954;52.624;9.212;2023-08-07T12:34:00;6.03;;;3.70;;
7817;SDS011;3954;52.624;9.212;2023-08-07T12:36:26;4.00;;;2.43;;
7817;SDS011;3954;52.624;9.212;2023-08-07T12:38:52;7.70;;;2.30;;
7817;SDS011;3954;52.624;9.212;2023-08-07T12:41:19;6.40;;;2.73;;
7817;SDS011;3954;52.624;9.212;2023-08-07T12:43:45;4.70;;;2.23;;
7817;SDS011;3954;52.624;9.212;2023-08-07T12:46:12;3.40;;;2.10;;
7817;SDS011;3954;52.624;9.212;2023-08-07T12:48:38;3.63;;;2.00;;
7817;SDS011;3954;52.624;9.212;2023-08-07T12:51:04;5.27;;;2.53;;
7817;SDS011;3954;52.624;9.212;2023-08-07T12:53:30;6.73;;;2.20;;
7817;SDS011;3954;52.624;9.212;2023-08-07T12:55:56;4.83;;;2.33;;
7817;SDS011;3954;52.624;9.212;2023-08-07T12:58:22;6.73;;;2.57;;
7817;SDS011;3954;52.624;9.212;2023-08-07T13:00:52;7.27;;;2.20;;
7817;SDS011;3954;52.624;9.212;2023-08-07T13:03:20;4.13;;;2.23;;
7817;SDS011;3954;52.624;9.212;2023-08-07T13:05:46;4.97;;;2.30;;
7817;SDS011;3954;52.624;9.212;2023-08-07T13:08:12;5.93;;;3.13;;
7817;SDS011;3954;52.624;9.212;2023-08-07T13:10:38;5.57;;;2.10;;
7817;SDS011;3954;52.624;9.212;2023-08-07T13:13:04;5.20;;;2.00;;
7817;SDS011;3954;52.624;9.212;2023-08-07T13:15:30;7.43;;;2.67;;
7817;SDS011;3954;52.624;9.212;2023-08-07T13:17:56;5.03;;;2.13;;
7817;SDS011;3954;52.624;9.212;2023-08-07T13:20:24;5.67;;;2.13;;
7817;SDS011;3954;52.624;9.212;2023-08-07T13:22:51;6.53;;;2.60;;
7817;SDS011;3954;52.624;9.212;2023-08-07T13:25:17;4.17;;;1.80;;
7817;SDS011;3954;52.624;9.212;2023-08-07T13:27:43;4.80;;;2.00;;
7817;SDS011;3954;52.624;9.212;2023-08-07T13:30:09;3.20;;;2.03;;
7817;SDS011;3954;52.624;9.212;2023-08-07T13:32:36;6.03;;;2.13;;
7817;SDS011;3954;52.624;9.212;2023-08-07T13:35:02;6.60;;;2.50;;
7817;SDS011;3954;52.624;9.212;2023-08-07T13:37:29;9.40;;;2.30;;
7817;SDS011;3954;52.624;9.212;2023-08-07T13:39:56;4.33;;;2.00;;
7817;SDS011;3954;52.624;9.212;2023-08-07T13:42:23;9.67;;;2.43;;
7817;SDS011;3954;52.624;9.212;2023-08-07T13:44:50;6.60;;;2.00;;
7817;SDS011;3954;52.624;9.212;2023-08-07T13:47:16;5.20;;;2.27;;
7817;SDS011;3954;52.624;9.212;2023-08-07T13:49:43;5.07;;;2.00;;
7817;SDS011;3954;52.624;9.212;2023-08-07T13:52:09;6.87;;;4.53;;
7817;SDS011;3954;52.624;9.212;2023-08-07T13:54:36;5.90;;;2.37;;
7817;SDS011;3954;52.624;9.212;2023-08-07T13:57:02;5.30;;;2.43;;
7817;SDS011;3954;52.624;9.212;2023-08-07T13:59:28;6.40;;;2.47;;
7817;SDS011;3954;52.624;9.212;2023-08-07T14:01:54;9.17;;;2.50;;
7817;SDS011;3954;52.624;9.212;2023-08-07T14:04:21;3.87;;;2.30;;
7817;SDS011;3954;52.624;9.212;2023-08-07T14:06:47;4.60;;;2.30;;
7817;SDS011;3954;52.624;9.212;2023-08-07T14:09:13;5.37;;;2.53;;
7817;SDS011;3954;52.624;9.212;2023-08-07T14:11:40;4.07;;;1.90;;
7817;SDS011;3954;52.624;9.212;2023-08-07T14:14:06;5.90;;;1.97;;
7817;SDS011;3954;52.624;9.212;2023-08-07T14:16:32;4.60;;;2.33;;
7817;SDS011;3954;52.624;9.212;2023-08-07T14:18:58;6.70;;;2.50;;
7817;SDS011;3954;52.624;9.212;2023-08-07T14:21:24;4.20;;;2.30;;
7817;SDS011;3954;52.624;9.212;2023-08-07T14:23:50;4.63;;;2.23;;
7817;SDS011;3954;52.624;9.212;2023-08-07T14:26:16;3.90;;;2.20;;
7817;SDS011;3954;52.624;9.212;2023-08-07T14:28:45;5.33;;;2.07;;
7817;SDS011;3954;52.624;9.212;2023-08-07T14:31:11;5.07;;;2.27;;
7817;SDS011;3954;52.624;9.212;2023-08-07T14:33:37;5.93;;;2.13;;
7817;SDS011;3954;52.624;9.212;2023-08-07T14:36:04;5.77;;;3.70;;
7817;SDS011;3954;52.624;9.212;2023-08-07T14:38:30;3.60;;;2.07;;
7817;SDS011;3954;52.624;9.212;2023-08-07T14:40:56;5.30;;;2.00;;
7817;SDS011;3954;52.624;9.212;2023-08-07T14:43:24;4.07;;;1.83;;
7817;SDS011;3954;52.624;9.212;2023-08-07T14:45:51;7.17;;;2.73;;
7817;SDS011;3954;52.624;9.212;2023-08-07T14:48:19;8.90;;;2.40;;
7817;SDS011;3954;52.624;9.212;2023-08-07T14:50:47;4.67;;;2.00;;
7817;SDS011;3954;52.624;9.212;2023-08-07T14:53:13;4.67;;;2.17;;
7817;SDS011;3954;52.624;9.212;2023-08-07T14:55:39;4.20;;;1.80;;
7817;SDS011;3954;52.624;9.212;2023-08-07T14:58:05;4.80;;;1.83;;
7817;SDS011;3954;52.624;9.212;2023-08-07T15:00:31;4.03;;;2.00;;
7817;SDS011;3954;52.624;9.212;2023-08-07T15:02:58;3.63;;;2.10;;
7817;SDS011;3954;52.624;9.212;2023-08-07T15:05:24;6.33;;;4.33;;
7817;SDS011;3954;52.624;9.212;2023-08-07T15:07:50;3.03;;;1.77;;
7817;SDS011;3954;52.624;9.212;2023-08-07T15:10:16;6.77;;;2.00;;
7817;SDS011;3954;52.624;9.212;2023-08-07T15:12:42;2.07;;;1.43;;
7817;SDS011;3954;52.624;9.212;2023-08-07T15:15:08;6.73;;;1.53;;